Home > Products > Valid Products > TAF

000
FTUS46 KEKA 010604 AAA
TAFACV
TAF AMD
KACV 010604Z 0106/0206 VRB04KT 6SM BR SCT004 OVC007
     FM011000 VRB02KT 2SM BR OVC004
     FM011800 24006KT 5SM BR OVC004
     FM012100 26006KT P6SM SCT004 BKN007 OVC150
     FM020300 17004KT P6SM OVC004=



000
FTUS46 KEKA 010604 AAA
TAFACV
TAF AMD
KACV 010604Z 0106/0206 VRB04KT 6SM BR SCT004 OVC007
     FM011000 VRB02KT 2SM BR OVC004
     FM011800 24006KT 5SM BR OVC004
     FM012100 26006KT P6SM SCT004 BKN007 OVC150
     FM020300 17004KT P6SM OVC004=



000
FTUS46 KEKA 010534
TAFCEC
TAF
KCEC 010534Z 0106/0206 16012KT 5SM BR OVC005
     FM011000 17004KT 2SM BR OVC004
     FM012000 18007KT P6SM BKN004 OVC007
     FM020300 17010KT 5SM BR OVC004=



000
FTUS46 KEKA 010534
TAFACV
TAF
KACV 010534Z 0106/0206 VRB04KT 5SM BR OVC005
     FM011000 VRB02KT 2SM BR OVC003
     FM011800 24006KT 5SM BR OVC004
     FM012100 26006KT P6SM SCT004 BKN007 OVC150
     FM020300 17004KT P6SM OVC004=



000
FTUS46 KEKA 010534
TAFUKI
TAF
KUKI 010534Z 0106/0206 VRB03KT P6SM FEW060 SCT120
     FM011200 00000KT P6SM FEW012 SCT120
     FM012100 14008KT P6SM SCT150
     FM020000 23008KT P6SM SCT150=



000
FTUS46 KEKA 010534
TAFCEC
TAF
KCEC 010534Z 0106/0206 16012KT 5SM BR OVC005
     FM011000 17004KT 2SM BR OVC004
     FM012000 18007KT P6SM BKN004 OVC007
     FM020300 17010KT 5SM BR OVC004=



000
FTUS46 KEKA 010534
TAFACV
TAF
KACV 010534Z 0106/0206 VRB04KT 5SM BR OVC005
     FM011000 VRB02KT 2SM BR OVC003
     FM011800 24006KT 5SM BR OVC004
     FM012100 26006KT P6SM SCT004 BKN007 OVC150
     FM020300 17004KT P6SM OVC004=



000
FTUS46 KEKA 010534
TAFUKI
TAF
KUKI 010534Z 0106/0206 VRB03KT P6SM FEW060 SCT120
     FM011200 00000KT P6SM FEW012 SCT120
     FM012100 14008KT P6SM SCT150
     FM020000 23008KT P6SM SCT150=



000
FTUS46 KEKA 010330 AAB
TAFCEC
TAF AMD
KCEC 010330Z 0104/0124 17011KT 2SM BR VCTS BKN002 OVC035CB
     FM010500 17010KT 2SM BR OVC003
     FM011000 17004KT 1/2SM FG VV002
     FM011700 18005KT 3SM BR OVC003
     FM012000 18007KT P6SM OVC004=



000
FTUS46 KEKA 010205 AAA
TAFUKI
TAF AMD
KUKI 010205Z 0102/0124 16005KT P6SM FEW060 SCT150
     FM010500 VRB03KT P6SM SCT150
     FM012100 14010KT P6SM SCT150=



000
FTUS46 KEKA 010126 AAA
TAFCEC
TAF AMD
KCEC 010126Z 0101/0124 18007KT 2SM BR OVC003
     FM011000 17004KT 1/2SM FG VV002
     FM011700 18005KT 3SM BR OVC003
     FM012000 18007KT P6SM OVC004=



000
FTUS46 KEKA 010126 AAA
TAFCEC
TAF AMD
KCEC 010126Z 0101/0124 18007KT 2SM BR OVC003
     FM011000 17004KT 1/2SM FG VV002
     FM011700 18005KT 3SM BR OVC003
     FM012000 18007KT P6SM OVC004=



000
FTUS46 KEKA 312347
TAFACV
TAF
KACV 312347Z 0100/0124 26005KT P6SM SCT005 BKN150
     FM010100 25005KT 6SM BR OVC004
     FM010300 18003KT 3SM BR OVC002
     FM011000 VRB02KT 1/2SM FG VV002
     FM011800 29006KT 5SM BR OVC003
     FM012100 26006KT P6SM SCT004 BKN007 OVC150=



000
FTUS46 KEKA 312347
TAFUKI
TAF
KUKI 312347Z 0100/0124 15010G18KT P6SM FEW060 SCT150
     FM010300 VRB06KT P6SM SCT150
     FM010500 VRB03KT P6SM SCT150
     FM012100 14010KT P6SM SCT150=



000
FTUS46 KEKA 312347
TAFCEC
TAF
KCEC 312347Z 0100/0124 18007KT 5SM BR OVC004
     FM011000 17004KT 1/2SM FG VV002
     FM011700 18005KT 3SM BR OVC003
     FM012000 18007KT P6SM OVC004=



000
FTUS46 KEKA 312215 CCC
TAFACV
TAF COR
KACV 312215Z 3118/0118 25005KT P6SM SCT005
     FM010100 VRB04KT P6SM OVC004
     FM010300 18003KT 3SM BR OVC002
     FM011000 VRB02KT 1/2SM FG VV002=



000
FTUS46 KEKA 312210 CCA
TAFCEC
TAF COR
KCEC 312210Z 3118/0118 18008KT P6SM BKN004
     FM010000 17006KT 5SM BR BKN005
     FM011000 18004KT 1/2SM FG VV002=



000
FTUS46 KEKA 312209 CCB
TAFACV
TAF COR
KACV 312209Z 3118/0118 25005KT P6SM BKN005
     FM010100 VRB04KT P6SM OVC004
     FM010300 18003KT 3SM BR OVC002
     FM011000 VRB02KT 1/2SM FG VV002=



000
FTUS46 KEKA 312109 CCA
TAFACV
TAF COR
KACV 312109Z 3118/0118 25005KT P6SM BKN005
     FM010100 VRB04KT P6SM SCT250
     FM010300 18003KT 3SM BR OVC002
     FM011000 VRB02KT 1/2SM FG VV002=



000
FTUS46 KEKA 312109 CCA
TAFACV
TAF COR
KACV 312109Z 3118/0118 25005KT P6SM BKN005
     FM010100 VRB04KT P6SM SCT250
     FM010300 18003KT 3SM BR OVC002
     FM011000 VRB02KT 1/2SM FG VV002=



000
FTUS46 KEKA 311720
TAFUKI
TAF
KUKI 311720Z 3118/0118 VRB04KT P6SM SCT250
     FM312100 13008KT P6SM SCT150
     FM010400 00000KT P6SM SCT150=



000
FTUS46 KEKA 311720
TAFCEC
TAF
KCEC 311720Z 3118/0118 20006KT P6SM FEW250
     FM312000 18008KT P6SM SCT250
     FM010000 17006KT 5SM BR BKN005
     FM011000 18004KT 1/2SM FG VV002=



000
FTUS46 KEKA 311720
TAFACV
TAF
KACV 311720Z 3118/0118 VRB06KT P6SM FEW250
     FM312100 27005KT P6SM SCT250
     FM010100 VRB04KT P6SM SCT250
     FM010300 18003KT 3SM BR OVC002
     FM011000 VRB02KT 1/2SM FG VV002=



000
FTUS46 KEKA 311545 CCA
TAFCEC
TAF COR
KCEC 311545Z 3115/0112 VRB06KT P6SM SCT004
     FM311900 25005KT P6SM BKN020
     FM312000 19007KT 5SM BR BKN005
     FM010000 18004KT 1/2SM FG OVC002=



000
FTUS46 KEKA 311545 CCA
TAFCEC
TAF COR
KCEC 311545Z 3115/0112 VRB06KT P6SM SCT004
     FM311900 25005KT P6SM BKN020
     FM312000 19007KT 5SM BR BKN005
     FM010000 18004KT 1/2SM FG OVC002=



000
FTUS46 KEKA 311502 AAA
TAFCEC
TAF AMD
KCEC 311502Z 3115/0112 VRB06KT P6SM OVC002
     FM311900 25005KT P6SM BKN020
     FM312000 19007KT 5SM BR BKN005
     FM010000 18004KT 1/2SM FG OVC002=



000
FTUS46 KEKA 311502 AAA
TAFCEC
TAF AMD
KCEC 311502Z 3115/0112 VRB06KT P6SM OVC002
     FM311900 25005KT P6SM BKN020
     FM312000 19007KT 5SM BR BKN005
     FM010000 18004KT 1/2SM FG OVC002=



000
FTUS46 KEKA 311500 AAA
TAFACV
TAF AMD
KACV 311500Z 3115/0112 00000KT P6SM SKC
     FM311900 VRB05KT P6SM SKC
     FM312000 31006KT P6SM SKC
     FM010100 18003KT 3/4SM BR OVC002=



000
FTUS46 KEKA 311120
TAFACV
TAF
KACV 311120Z 3112/0112 00000KT 1/2SM FG VV002
     FM311600 VRB03KT P6SM SCT003
     FM311800 24006KT 1SM BR BKN002
     FM312000 31006KT P6SM BKN004
     FM010100 18003KT 3/4SM BR OVC002=



000
FTUS46 KEKA 311120
TAFCEC
TAF
KCEC 311120Z 3112/0112 00000KT 1/4SM FG VV002
     FM311700 25005KT 2SM BR BKN003
     FM312000 19007KT 5SM BR BKN005
     FM010000 18004KT 1/2SM FG OVC002=



000
FTUS46 KEKA 311120
TAFUKI
TAF
KUKI 311120Z 3112/0112 00000KT P6SM SCT250
     FM312100 14008KT P6SM SCT150=



000
FTUS46 KEKA 310601 CCA
TAFCEC
TAF COR
KCEC 310601Z 3106/0106 VRB03KT 1/4SM FG OVC002
      TEMPO 3106/3109 1/2SM FG
     FM310900 16003KT 1/4SM FG OVC001
     FM311700 25005KT 3SM BR OVC003
     FM312000 19007KT P6SM OVC005
     FM010300 VRB03KT 2SM BR OVC002=



000
FTUS46 KEKA 310601 CCA
TAFCEC
TAF COR
KCEC 310601Z 3106/0106 VRB03KT 1/4SM FG OVC002
      TEMPO 3106/3109 1/2SM FG
     FM310900 16003KT 1/4SM FG OVC001
     FM311700 25005KT 3SM BR OVC003
     FM312000 19007KT P6SM OVC005
     FM010300 VRB03KT 2SM BR OVC002=



000
FTUS46 KEKA 310600 CCA
TAFACV
TAF COR
KACV 310600Z 3106/0106 30003KT 1/4SM FG OVC002
      TEMPO 3107/3109 3/4SM BR OVC002
     FM310900 VRB03KT 1/4SM FG OVC001
     FM311700 28004KT 1SM BR OVC003
     FM312000 24006KT P6SM OVC005
     FM010100 25004KT 2SM BR OVC003=



000
FTUS46 KEKA 310600 CCA
TAFACV
TAF COR
KACV 310600Z 3106/0106 30003KT 1/4SM FG OVC002
      TEMPO 3107/3109 3/4SM BR OVC002
     FM310900 VRB03KT 1/4SM FG OVC001
     FM311700 28004KT 1SM BR OVC003
     FM312000 24006KT P6SM OVC005
     FM010100 25004KT 2SM BR OVC003=



000
FTUS46 KEKA 310535
TAFCEC
TAF
KCEC 310535Z 3106/0106 VRB03KT 1/4SM FG OVC002
      TEMPO 3107/3109 1/2SM FG
     FM310900 16003KT 1/4SM FG OVC001
     FM311700 25005KT 3SM BR OVC003
     FM312000 19007KT P6SM OVC005
     FM010300 VRB03KT 2SM BR OVC002=



000
FTUS46 KEKA 310535
TAFACV
TAF
KACV 310535Z 3106/0106 30003KT 1/4SM FG OVC001
      TEMPO 3107/3109 1/2SM FG OVC002
     FM310900 VRB03KT 1/4SM FG OVC001
     FM311700 28004KT 1SM BR OVC003
     FM312000 24006KT P6SM OVC005
     FM010100 25004KT 2SM BR OVC003=



000
FTUS46 KEKA 310535
TAFUKI
TAF
KUKI 310535Z 3106/0106 VRB03KT P6SM FEW150 SCT250
     FM311800 10005KT P6SM SCT050 SCT250=



000
FTUS46 KEKA 310435 AAB
TAFCEC
TAF AMD
KCEC 310435Z 3105/3124 19004KT 1/2SM FG OVC002
      TEMPO 3105/3107 1/4SM FG OVC001
     FM310700 16003KT 1/4SM FG OVC001
     FM311700 25005KT P6SM OVC005=



000
FTUS46 KEKA 310435 AAB
TAFCEC
TAF AMD
KCEC 310435Z 3105/3124 19004KT 1/2SM FG OVC002
      TEMPO 3105/3107 1/4SM FG OVC001
     FM310700 16003KT 1/4SM FG OVC001
     FM311700 25005KT P6SM OVC005=



000
FTUS46 KEKA 310334 AAA
TAFACV
TAF AMD
KACV 310334Z 3104/3124 30003KT 1/2SM FG OVC002
      TEMPO 3104/3107 3/4SM BR OVC003
     FM310800 VRB03KT 1/2SM FG OVC001
     FM311200 VRB03KT 1/4SM FG OVC001
     FM311700 28004KT 6SM BR OVC004
     FM312100 24006KT P6SM OVC007=



000
FTUS46 KEKA 310205 AAA
TAFCEC
TAF AMD
KCEC 310205Z 3102/3124 19004KT 1/4SM FG OVC002
      TEMPO 3103/3106 3/4SM BR OVC003
     FM310600 16003KT 1/4SM FG OVC001
     FM311700 25005KT P6SM OVC005=



000
FTUS46 KEKA 310205 AAA
TAFCEC
TAF AMD
KCEC 310205Z 3102/3124 19004KT 1/4SM FG OVC002
      TEMPO 3103/3106 3/4SM BR OVC003
     FM310600 16003KT 1/4SM FG OVC001
     FM311700 25005KT P6SM OVC005=



000
FTUS46 KEKA 302359 CCA
TAFCEC
TAF COR
KCEC 302359Z 3100/3124 23005KT 6SM HZ BKN003
      TEMPO 3100/3103 3SM BR
     FM310300 15004KT 6SM BR OVC003
      TEMPO 3104/3106 2SM BR OVC003
     FM310600 16003KT 1SM BR OVC002
     FM311700 25005KT P6SM OVC005=



000
FTUS46 KEKA 302359 CCA
TAFCEC
TAF COR
KCEC 302359Z 3100/3124 23005KT 6SM HZ BKN003
      TEMPO 3100/3103 3SM BR
     FM310300 15004KT 6SM BR OVC003
      TEMPO 3104/3106 2SM BR OVC003
     FM310600 16003KT 1SM BR OVC002
     FM311700 25005KT P6SM OVC005=



000
FTUS46 KEKA 302334
TAFUKI
TAF
KUKI 302334Z 3100/3124 14006KT P6SM VCSH SCT030 SCT150 BKN250
     FM310600 VRB03KT P6SM SCT250
     FM311800 10005KT P6SM SCT050 SCT250=



000
FTUS46 KEKA 302334
TAFACV
TAF
KACV 302334Z 3100/3124 30006KT P6SM BKN003 OVC007
      TEMPO 3100/3103 BKN007
     FM310600 VRB03KT 1SM BR OVC002
     FM310800 VRB03KT 1/2SM FG OVC001
     FM311700 28004KT P6SM OVC004=



000
FTUS46 KEKA 302334
TAFCEC
TAF
KCEC 302334Z 3100/3124 23005KT 6SM HZ BKN003
     FM310300 15004KT 6SM BR OVC003
      TEMPO 3104/3106 2SM BR OVC003
     FM310600 16003KT 1SM BR OVC002
     FM311700 25005KT P6SM OVC005=



000
FTUS46 KEKA 302334
TAFUKI
TAF
KUKI 302334Z 3100/3124 14006KT P6SM VCSH SCT030 SCT150 BKN250
     FM310600 VRB03KT P6SM SCT250
     FM311800 10005KT P6SM SCT050 SCT250=



000
FTUS46 KEKA 302334
TAFACV
TAF
KACV 302334Z 3100/3124 30006KT P6SM BKN003 OVC007
      TEMPO 3100/3103 BKN007
     FM310600 VRB03KT 1SM BR OVC002
     FM310800 VRB03KT 1/2SM FG OVC001
     FM311700 28004KT P6SM OVC004=



000
FTUS46 KEKA 302334
TAFCEC
TAF
KCEC 302334Z 3100/3124 23005KT 6SM HZ BKN003
     FM310300 15004KT 6SM BR OVC003
      TEMPO 3104/3106 2SM BR OVC003
     FM310600 16003KT 1SM BR OVC002
     FM311700 25005KT P6SM OVC005=



000
FTUS46 KEKA 302314 AAA
TAFCEC
TAF AMD
KCEC 302314Z 3023/3118 23005KT 6SM HZ BKN003
     FM310600 16003KT 1SM BR OVC002
     FM311700 25005KT P6SM OVC005=



000
FTUS46 KEKA 302314 AAA
TAFCEC
TAF AMD
KCEC 302314Z 3023/3118 23005KT 6SM HZ BKN003
     FM310600 16003KT 1SM BR OVC002
     FM311700 25005KT P6SM OVC005=



000
FTUS46 KEKA 302310 AAA
TAFUKI
TAF AMD
KUKI 302310Z 3023/3118 15007KT P6SM VCSH SCT030 SCT150 BKN250
     FM310600 VRB03KT P6SM SCT250=



000
FTUS46 KEKA 302310 AAA
TAFUKI
TAF AMD
KUKI 302310Z 3023/3118 15007KT P6SM VCSH SCT030 SCT150 BKN250
     FM310600 VRB03KT P6SM SCT250=



000
FTUS46 KEKA 302251 CCC
TAFCEC
TAF COR
KCEC 302251Z 3018/3118 19008KT P6SM SKC
      TEMPO 3023/3102 4SM HZ BKN003
     FM310500 VRB03KT P6SM SKC
     FM311200 16003KT 3SM BR SKC=



000
FTUS46 KEKA 302203 CCB
TAFCEC
TAF COR
KCEC 302203Z 3018/3118 19008KT P6SM SKC
     FM310500 VRB03KT P6SM SKC
     FM311200 16003KT 3SM BR SKC=



000
FTUS46 KEKA 302103 CCB
TAFACV
TAF COR
KACV 302103Z 3018/3118 32008KT P6SM OVC005
     FM310300 VRB03KT P6SM SKC
     FM311300 VRB03KT 3SM BR OVC004=



000
FTUS46 KEKA 302102 CCA
TAFCEC
TAF COR
KCEC 302102Z 3018/3118 19008KT P6SM OVC005
     FM310500 VRB03KT P6SM SKC
     FM311200 16003KT 3SM BR SKC=



000
FTUS46 KEKA 301956 CCA
TAFACV
TAF COR
KACV 301956Z 3018/3118 32008KT P6SM SKC
     FM310300 VRB03KT P6SM SKC
     FM311300 VRB03KT 3SM BR OVC004=



000
FTUS46 KEKA 301956 CCA
TAFACV
TAF COR
KACV 301956Z 3018/3118 32008KT P6SM SKC
     FM310300 VRB03KT P6SM SKC
     FM311300 VRB03KT 3SM BR OVC004=



000
FTUS46 KEKA 301720
TAFACV
TAF
KACV 301720Z 3018/3118 32006KT 1SM BR OVC002
     FM301900 29005KT P6SM BKN004
     FM310300 VRB03KT P6SM SKC
     FM311300 VRB03KT 3SM BR OVC004=



000
FTUS46 KEKA 301720
TAFCEC
TAF
KCEC 301720Z 3018/3118 19008KT P6SM SKC
     FM310500 VRB03KT P6SM SKC
     FM311200 16003KT 3SM BR SKC=



000
FTUS46 KEKA 301720
TAFACV
TAF
KACV 301720Z 3018/3118 32006KT 1SM BR OVC002
     FM301900 29005KT P6SM BKN004
     FM310300 VRB03KT P6SM SKC
     FM311300 VRB03KT 3SM BR OVC004=



000
FTUS46 KEKA 301720
TAFCEC
TAF
KCEC 301720Z 3018/3118 19008KT P6SM SKC
     FM310500 VRB03KT P6SM SKC
     FM311200 16003KT 3SM BR SKC=



000
FTUS46 KEKA 301720
TAFUKI
TAF
KUKI 301720Z 3018/3118 00000KT P6SM SKC
     FM302100 18006KT P6SM SKC
     FM310200 VRB05KT P6SM SKC
     FM310800 00000KT P6SM SKC=



000
FTUS46 KEKA 301720
TAFUKI
TAF
KUKI 301720Z 3018/3118 00000KT P6SM SKC
     FM302100 18006KT P6SM SKC
     FM310200 VRB05KT P6SM SKC
     FM310800 00000KT P6SM SKC=



000
FTUS46 KEKA 301621 CCA
TAFACV
TAF COR
KACV 301621Z 3014/3112 32006KT P6SM SKC
      TEMPO 3016/3018 2SM BR OVC002
     FM301900 30005KT P6SM FEW007
     FM310300 VRB03KT 5SM BR BKN007=



000
FTUS46 KEKA 301411 AAD
TAFCEC
TAF AMD
KCEC 301411Z 3014/3112 VRB03KT P6SM SKC
     FM301900 19006KT P6SM FEW008
     FM310500 VRB03KT P6SM SCT008=



000
FTUS46 KEKA 301411 AAD
TAFCEC
TAF AMD
KCEC 301411Z 3014/3112 VRB03KT P6SM SKC
     FM301900 19006KT P6SM FEW008
     FM310500 VRB03KT P6SM SCT008=



000
FTUS46 KEKA 301410 AAD
TAFACV
TAF AMD
KACV 301410Z 3014/3112 VRB03KT P6SM SKC
     FM301900 28005KT P6SM FEW007
     FM310300 VRB03KT 5SM BR BKN007=



000
FTUS46 KEKA 301410 AAD
TAFACV
TAF AMD
KACV 301410Z 3014/3112 VRB03KT P6SM SKC
     FM301900 28005KT P6SM FEW007
     FM310300 VRB03KT 5SM BR BKN007=



000
FTUS46 KEKA 301247 AAC
TAFACV
TAF AMD
KACV 301247Z 3013/3112 VRB03KT P6SM SKC
     FM301400 22005KT P6SM BKN005
      TEMPO 3014/3016 1/2SM FG VV002
     FM301800 24005KT P6SM FEW007
     FM310300 VRB03KT 5SM BR BKN007=



000
FTUS46 KEKA 301247 AAC
TAFCEC
TAF AMD
KCEC 301247Z 3013/3112 VRB03KT P6SM SKC
      TEMPO 3013/3015 2SM BR
     FM301700 18006KT P6SM FEW008
     FM310500 VRB03KT P6SM SCT008=



000
FTUS46 KEKA 301247 AAC
TAFACV
TAF AMD
KACV 301247Z 3013/3112 VRB03KT P6SM SKC
     FM301400 22005KT P6SM BKN005
      TEMPO 3014/3016 1/2SM FG VV002
     FM301800 24005KT P6SM FEW007
     FM310300 VRB03KT 5SM BR BKN007=



000
FTUS46 KEKA 301247 AAC
TAFCEC
TAF AMD
KCEC 301247Z 3013/3112 VRB03KT P6SM SKC
      TEMPO 3013/3015 2SM BR
     FM301700 18006KT P6SM FEW008
     FM310500 VRB03KT P6SM SCT008=



000
FTUS46 KEKA 301141 AAB
TAFUKI
TAF AMD
KUKI 301141Z 3012/3106 00000KT P6SM SKC
     FM302100 28006KT P6SM SKC
     FM310100 VRB03KT P6SM SKC=



000
FTUS46 KEKA 301141 AAB
TAFCEC
TAF AMD
KCEC 301141Z 3012/3106 VRB03KT P6SM SKC
     FM301700 18006KT P6SM FEW008
     FM310500 VRB03KT P6SM SCT008=



000
FTUS46 KEKA 301141 AAB
TAFACV
TAF AMD
KACV 301141Z 3012/3106 VRB03KT P6SM SKC
     FM301300 VRB03KT P6SM SCT003
     FM301800 24005KT P6SM FEW007
     FM310300 VRB03KT 5SM BR BKN007=



000
FTUS46 KEKA 300945 AAA
TAFACV
TAF AMD
KACV 300945Z 3010/3106 VRB03KT P6SM SKC
     FM301100 VRB03KT P6SM SCT003
     FM301300 VRB03KT 1SM BR BKN003
     FM301800 24005KT P6SM FEW007
     FM310300 VRB03KT 5SM BR BKN007=



000
FTUS46 KEKA 300945 AAA
TAFUKI
TAF AMD
KUKI 300945Z 3010/3106 00000KT P6SM SKC
     FM302100 18006KT P6SM SKC
     FM302300 33005KT P6SM SKC=



000
FTUS46 KEKA 300945 AAA
TAFCEC
TAF AMD
KCEC 300945Z 3010/3106 17008KT P6SM SKC
     FM301300 16005KT 1SM BR SCT003
     FM301700 18006KT 6SM BR FEW008=



000
FTUS46 KEKA 300521
TAFUKI
TAF
KUKI 300521Z 3006/3106 00000KT P6SM SKC
     FM302100 18006KT P6SM SKC
     FM302300 33005KT P6SM SKC=



000
FTUS46 KEKA 300521
TAFUKI
TAF
KUKI 300521Z 3006/3106 00000KT P6SM SKC
     FM302100 18006KT P6SM SKC
     FM302300 33005KT P6SM SKC=



000
FTUS46 KEKA 300521
TAFACV
TAF
KACV 300521Z 3006/3106 20004KT P6SM SKC
     FM301100 20005KT 1SM BR OVC003
     FM301900 24005KT P6SM FEW007
     FM310300 VRB03KT 5SM BR BKN007=



000
FTUS46 KEKA 300521
TAFCEC
TAF
KCEC 300521Z 3006/3106 17012KT P6SM SKC
     FM301300 16005KT 1SM BR OVC003
     FM301700 18006KT 6SM BR FEW008=



000
FTUS46 KEKA 300521
TAFACV
TAF
KACV 300521Z 3006/3106 20004KT P6SM SKC
     FM301100 20005KT 1SM BR OVC003
     FM301900 24005KT P6SM FEW007
     FM310300 VRB03KT 5SM BR BKN007=



000
FTUS46 KEKA 300521
TAFCEC
TAF
KCEC 300521Z 3006/3106 17012KT P6SM SKC
     FM301300 16005KT 1SM BR OVC003
     FM301700 18006KT 6SM BR FEW008=



000
FTUS46 KEKA 292343
TAFACV
TAF
KACV 292343Z 3000/3024 22007KT P6SM SKC
     FM300300 19004KT P6SM SKC
     FM301100 20005KT 4SM BR BKN007
     FM302000 24005KT P6SM FEW007=



000
FTUS46 KEKA 292343
TAFCEC
TAF
KCEC 292343Z 3000/3024 16012KT P6SM SKC
     FM300200 17005KT P6SM SKC
     FM301200 16005KT P6SM FEW007=



000
FTUS46 KEKA 292343
TAFUKI
TAF
KUKI 292343Z 3000/3024 29010G15KT P6SM SKC
     FM300300 00000KT P6SM SKC
     FM302100 18006KT P6SM SKC=



000
FTUS46 KEKA 292343
TAFACV
TAF
KACV 292343Z 3000/3024 22007KT P6SM SKC
     FM300300 19004KT P6SM SKC
     FM301100 20005KT 4SM BR BKN007
     FM302000 24005KT P6SM FEW007=



000
FTUS46 KEKA 292343
TAFCEC
TAF
KCEC 292343Z 3000/3024 16012KT P6SM SKC
     FM300200 17005KT P6SM SKC
     FM301200 16005KT P6SM FEW007=



000
FTUS46 KEKA 292343
TAFUKI
TAF
KUKI 292343Z 3000/3024 29010G15KT P6SM SKC
     FM300300 00000KT P6SM SKC
     FM302100 18006KT P6SM SKC=



000
FTUS46 KEKA 292248 CCA
TAFACV
TAF COR
KACV 292248Z 2918/3018 VRB06KT P6SM SKC
     FM300300 VRB03KT P6SM SKC
     FM300600 VRB02KT P6SM SKC=



000
FTUS46 KEKA 292248 CCA
TAFACV
TAF COR
KACV 292248Z 2918/3018 VRB06KT P6SM SKC
     FM300300 VRB03KT P6SM SKC
     FM300600 VRB02KT P6SM SKC=



000
FTUS46 KEKA 292247 CCA
TAFCEC
TAF COR
KCEC 292247Z 2918/3018 16010KT P6SM SKC
     FM300200 17005KT P6SM SKC
     FM300600 16003KT P6SM SKC=



000
FTUS46 KEKA 292247 CCA
TAFCEC
TAF COR
KCEC 292247Z 2918/3018 16010KT P6SM SKC
     FM300200 17005KT P6SM SKC
     FM300600 16003KT P6SM SKC=



000
FTUS46 KEKA 291732
TAFUKI
TAF
KUKI 291732Z 2918/3018 00000KT P6SM SKC
     FM292200 VRB06KT P6SM SKC
     FM300300 00000KT P6SM SKC=



000
FTUS46 KEKA 291732
TAFACV
TAF
KACV 291732Z 2918/3018 VRB06KT P6SM SKC
     FM291900 31008KT P6SM SKC
     FM300200 VRB03KT P6SM SKC
     FM300800 VRB02KT P6SM SKC=



000
FTUS46 KEKA 291732
TAFCEC
TAF
KCEC 291732Z 2918/3018 33010KT P6SM SKC
     FM292200 26008KT P6SM SKC
     FM300100 17005KT P6SM SKC
     FM300600 16003KT P6SM SKC=



000
FTUS46 KEKA 291351 AAA
TAFACV
TAF AMD
KACV 291351Z 2914/3012 VRB03KT P6SM SKC
     FM291800 32007KT P6SM SKC
     FM300300 14003KT P6SM SKC
     FM300500 VRB03KT 5SM BR SCT005=



000
FTUS46 KEKA 291120
TAFUKI
TAF
KUKI 291120Z 2912/3012 00000KT P6SM SKC
     FM292200 25007KT P6SM SKC
     FM300300 00000KT P6SM SKC=



000
FTUS46 KEKA 291120
TAFCEC
TAF
KCEC 291120Z 2912/3012 01005KT P6SM SKC
      TEMPO 2912/2914 3SM HZ
     FM291700 33010KT P6SM SKC
     FM300100 17005KT P6SM SKC
     FM300600 16003KT 5SM BR FEW005=



000
FTUS46 KEKA 291120
TAFUKI
TAF
KUKI 291120Z 2912/3012 00000KT P6SM SKC
     FM292200 25007KT P6SM SKC
     FM300300 00000KT P6SM SKC=



000
FTUS46 KEKA 291120
TAFCEC
TAF
KCEC 291120Z 2912/3012 01005KT P6SM SKC
      TEMPO 2912/2914 3SM HZ
     FM291700 33010KT P6SM SKC
     FM300100 17005KT P6SM SKC
     FM300600 16003KT 5SM BR FEW005=



000
FTUS46 KEKA 291120
TAFACV
TAF
KACV 291120Z 2912/3012 VRB03KT P6SM SKC
     FM291300 VRB03KT 5SM HZ SKC
     FM291800 32007KT P6SM SKC
     FM300300 14003KT P6SM SKC
     FM300500 VRB03KT 5SM BR SCT005=



000
FTUS46 KEKA 291120
TAFACV
TAF
KACV 291120Z 2912/3012 VRB03KT P6SM SKC
     FM291300 VRB03KT 5SM HZ SKC
     FM291800 32007KT P6SM SKC
     FM300300 14003KT P6SM SKC
     FM300500 VRB03KT 5SM BR SCT005=



000
FTUS46 KEKA 290925 AAA
TAFCEC
TAF AMD
KCEC 290925Z 2909/3006 01005KT 4SM HZ SKC
      TEMPO 2909/2913 2SM HZ
     FM291700 33010KT P6SM SKC
     FM300100 17005KT P6SM SKC=



    US Dept of Commerce
    National Oceanic and Atmospheric Administration
    National Weather Service
    1325 East West Highway
    Silver Spring, MD 20910
    Page Author: NWS Internet Services Team
Disclaimer
Information Quality
Credits
Glossary
Privacy Policy
Freedom of Information Act (FOIA)
About Us
Career Opportunities